createdAt,value
2023-03-10T00:02:15.026Z,11.32
2023-03-10T00:04:44.703Z,15.82
2023-03-10T00:07:14.212Z,10.68
2023-03-10T00:09:43.881Z,4.75
2023-03-10T00:12:15.980Z,24.05
2023-03-10T00:14:45.452Z,7.70
2023-03-10T00:17:14.954Z,5.93
2023-03-10T00:19:44.448Z,4.50
2023-03-10T00:22:13.915Z,10.20
2023-03-10T00:24:43.136Z,10.13
2023-03-10T00:27:15.194Z,15.88
2023-03-10T00:29:44.744Z,7.55
2023-03-10T00:32:14.304Z,10.77
2023-03-10T00:34:43.808Z,6.38
2023-03-10T00:37:13.298Z,8.52
2023-03-10T00:39:42.770Z,7.95
2023-03-10T00:42:14.837Z,13.38
2023-03-10T00:44:44.462Z,4.95
2023-03-10T00:47:13.956Z,10.02
2023-03-10T00:49:43.454Z,4.88
2023-03-10T00:52:13.128Z,25.70
2023-03-10T00:54:43.670Z,16.27
2023-03-10T00:57:15.764Z,5.47
2023-03-10T00:59:50.382Z,4.50
2023-03-10T01:02:20.374Z,4.53
2023-03-10T01:04:50.082Z,4.22
2023-03-10T01:07:19.662Z,4.28
2023-03-10T01:09:49.197Z,4.53
2023-03-10T01:12:21.956Z,6.07
2023-03-10T01:14:51.390Z,5.07
2023-03-10T01:17:20.915Z,3.97
2023-03-10T01:19:50.406Z,2.50
2023-03-10T01:22:19.889Z,4.68
2023-03-10T01:24:49.432Z,4.30
2023-03-10T01:27:21.599Z,3.15
2023-03-10T01:29:51.195Z,3.80
2023-03-10T01:32:20.756Z,3.10
2023-03-10T01:34:50.290Z,3.45
2023-03-10T01:37:21.222Z,3.10
2023-03-10T01:39:50.748Z,2.55
2023-03-10T01:42:22.872Z,4.63
2023-03-10T01:45:08.618Z,4.68
2023-03-10T01:47:38.203Z,3.40
2023-03-10T01:50:08.221Z,4.93
2023-03-10T01:52:37.705Z,4.75
2023-03-10T01:55:09.683Z,3.53
2023-03-10T01:57:43.332Z,5.57
2023-03-10T02:00:16.197Z,4.13
2023-03-10T02:02:49.770Z,3.40
2023-03-10T02:05:19.389Z,3.03
2023-03-10T02:07:48.813Z,2.60
2023-03-10T02:10:18.411Z,4.72
2023-03-10T02:12:50.504Z,3.47
2023-03-10T02:15:20.202Z,4.47
2023-03-10T02:17:49.734Z,3.58
2023-03-10T02:20:25.184Z,3.30
2023-03-10T02:22:54.796Z,3.15
2023-03-10T02:25:38.056Z,3.53
2023-03-10T02:28:10.158Z,3.85
2023-03-10T02:30:40.260Z,2.47
2023-03-10T02:33:10.503Z,3.38
2023-03-10T02:35:40.232Z,3.10
2023-03-10T02:38:09.813Z,2.92
2023-03-10T02:40:40.700Z,4.32
2023-03-10T02:43:18.256Z,4.28
2023-03-10T02:45:48.792Z,5.43
2023-03-10T02:48:21.577Z,3.70
2023-03-10T02:50:51.041Z,2.53
2023-03-10T02:53:21.630Z,4.28
2023-03-10T02:55:51.220Z,4.15
2023-03-10T02:58:24.124Z,3.65
2023-03-10T03:00:53.703Z,3.72
2023-03-10T03:03:23.525Z,4.95
2023-03-10T03:05:53.012Z,4.40
2023-03-10T03:08:22.737Z,3.70
2023-03-10T03:10:53.408Z,5.78
2023-03-10T03:13:25.561Z,3.63
2023-03-10T03:15:55.045Z,3.90
2023-03-10T03:18:24.567Z,3.78
2023-03-10T03:20:54.094Z,5.88
2023-03-10T03:23:23.645Z,6.20
2023-03-10T03:25:53.205Z,3.90
2023-03-10T03:28:25.578Z,4.63
2023-03-10T03:30:55.193Z,2.63
2023-03-10T03:33:24.671Z,3.90
2023-03-10T03:35:54.224Z,3.55
2023-03-10T03:38:23.712Z,3.95
2023-03-10T03:40:53.270Z,4.25
2023-03-10T03:43:27.587Z,4.82
2023-03-10T03:45:57.211Z,3.20
2023-03-10T03:48:26.669Z,5.38
2023-03-10T03:50:56.125Z,4.00
2023-03-10T03:53:25.589Z,5.25
2023-03-10T03:55:55.078Z,5.00
2023-03-10T03:58:27.304Z,4.50
2023-03-10T04:00:57.018Z,4.35
2023-03-10T04:03:26.547Z,4.15
2023-03-10T04:05:56.051Z,4.95
2023-03-10T04:08:25.558Z,4.80
2023-03-10T04:10:55.263Z,4.43
2023-03-10T04:13:27.444Z,4.10
2023-03-10T04:16:00.530Z,5.82
2023-03-10T04:18:30.085Z,5.07
2023-03-10T04:20:59.574Z,4.30
2023-03-10T04:23:29.002Z,5.05
2023-03-10T04:25:58.485Z,4.50
2023-03-10T04:28:30.537Z,3.22
2023-03-10T04:31:00.104Z,4.00
2023-03-10T04:33:29.641Z,3.28
2023-03-10T04:35:59.130Z,6.07
2023-03-10T04:38:28.807Z,3.78
2023-03-10T04:40:58.782Z,4.93
2023-03-10T04:43:30.838Z,5.03
2023-03-10T04:46:00.507Z,4.20
2023-03-10T04:48:30.060Z,5.38
2023-03-10T04:50:59.683Z,4.05
2023-03-10T04:53:29.275Z,4.10
2023-03-10T04:55:58.841Z,5.63
2023-03-10T04:58:30.909Z,5.20
2023-03-10T05:01:03.567Z,3.97
2023-03-10T05:03:33.210Z,4.95
2023-03-10T05:06:02.674Z,7.38
2023-03-10T05:08:32.169Z,5.68
2023-03-10T05:11:03.085Z,4.85
2023-03-10T05:13:35.207Z,7.82
2023-03-10T05:16:04.673Z,5.13
2023-03-10T05:18:34.291Z,4.78
2023-03-10T05:21:04.045Z,4.95
2023-03-10T05:23:33.485Z,8.13
2023-03-10T05:26:05.945Z,6.38
2023-03-10T05:28:38.028Z,8.20
2023-03-10T05:31:11.624Z,10.07
2023-03-10T05:33:41.243Z,6.45
2023-03-10T05:36:12.043Z,8.55
2023-03-10T05:38:41.637Z,7.70
2023-03-10T05:41:11.403Z,7.60
2023-03-10T05:43:43.451Z,7.80
2023-03-10T05:46:13.525Z,6.80
2023-03-10T05:48:43.007Z,8.02
2023-03-10T05:51:13.539Z,11.98
2023-03-10T05:53:43.151Z,9.05
2023-03-10T05:56:13.552Z,7.55
2023-03-10T05:58:45.746Z,6.95
2023-03-10T06:01:15.352Z,9.32
2023-03-10T06:03:45.284Z,9.95
2023-03-10T06:06:15.267Z,9.65
2023-03-10T06:08:44.820Z,9.23
2023-03-10T06:11:14.344Z,7.90
2023-03-10T06:13:46.403Z,7.65
2023-03-10T06:16:15.970Z,8.75
2023-03-10T06:18:45.553Z,9.85
2023-03-10T06:21:16.650Z,8.48
2023-03-10T06:26:16.764Z,7.47
2023-03-10T06:28:49.122Z,12.27
2023-03-10T06:31:19.709Z,13.50
2023-03-10T06:33:49.245Z,14.25
2023-03-10T06:36:21.720Z,9.65
2023-03-10T06:38:51.402Z,9.50
2023-03-10T06:41:20.875Z,9.57
2023-03-10T06:43:52.972Z,9.23
2023-03-10T06:46:22.669Z,8.90
2023-03-10T06:48:52.362Z,6.45
2023-03-10T06:51:22.769Z,7.13
2023-03-10T06:53:52.762Z,9.32
2023-03-10T06:56:22.926Z,7.53
2023-03-10T06:58:54.947Z,8.17
2023-03-10T07:01:26.092Z,8.43
2023-03-10T07:03:55.749Z,6.78
2023-03-10T07:06:25.210Z,5.65
2023-03-10T07:08:55.022Z,5.65
2023-03-10T07:11:24.690Z,4.13
2023-03-10T07:13:57.375Z,5.57
2023-03-10T07:16:26.921Z,4.05
2023-03-10T07:18:56.379Z,4.82
2023-03-10T07:21:25.969Z,5.68
2023-03-10T07:23:55.515Z,6.05
2023-03-10T07:26:25.503Z,4.38
2023-03-10T07:28:57.549Z,4.72
2023-03-10T07:31:27.265Z,6.25
2023-03-10T07:33:56.791Z,5.75
2023-03-10T07:36:26.311Z,4.65
2023-03-10T07:38:56.053Z,3.78
2023-03-10T07:41:25.584Z,4.40
2023-03-10T07:43:57.601Z,3.92
2023-03-10T07:46:27.333Z,3.60
2023-03-10T07:48:59.985Z,1.50
2023-03-10T07:51:29.596Z,2.40
2023-03-10T07:53:59.171Z,2.50
2023-03-10T07:56:28.895Z,2.17
2023-03-10T07:59:01.197Z,3.58
2023-03-10T08:01:30.772Z,1.52
2023-03-10T08:04:00.397Z,3.15
2023-03-10T08:06:30.877Z,2.63
2023-03-10T08:09:00.363Z,4.10
2023-03-10T08:11:29.960Z,2.72
2023-03-10T08:14:02.190Z,2.30
2023-03-10T08:16:31.847Z,2.78
2023-03-10T08:19:01.528Z,2.65
2023-03-10T08:21:31.057Z,4.10
2023-03-10T08:24:00.562Z,3.42
2023-03-10T08:26:30.074Z,5.60
2023-03-10T08:29:02.144Z,3.80
2023-03-10T08:31:31.786Z,2.78
2023-03-10T08:34:01.484Z,4.82
2023-03-10T08:36:31.973Z,5.93
2023-03-10T08:39:05.620Z,4.00
2023-03-10T08:41:37.226Z,3.63
2023-03-10T08:44:11.891Z,4.32
2023-03-10T08:46:41.623Z,5.63
2023-03-10T08:49:11.142Z,6.30
2023-03-10T08:51:40.806Z,5.20
2023-03-10T08:54:10.592Z,5.22
2023-03-10T08:56:40.050Z,6.72
2023-03-10T08:59:12.342Z,5.65
2023-03-10T09:01:41.989Z,6.07
2023-03-10T09:04:11.559Z,5.50
2023-03-10T09:06:41.487Z,7.43
2023-03-10T09:09:11.333Z,5.70
2023-03-10T09:11:41.719Z,6.43
2023-03-10T09:14:16.933Z,4.82
2023-03-10T09:16:46.972Z,6.18
2023-03-10T09:19:16.720Z,6.03
2023-03-10T09:21:46.257Z,6.88
2023-03-10T09:24:15.776Z,5.68
2023-03-10T09:26:45.344Z,6.20
2023-03-10T09:29:17.419Z,5.15
2023-03-10T09:31:48.430Z,4.82
2023-03-10T09:36:47.357Z,4.05
2023-03-10T09:39:16.827Z,4.60
2023-03-10T09:42:09.055Z,3.65
2023-03-10T09:44:43.425Z,4.25
2023-03-10T09:47:29.265Z,3.33
2023-03-10T09:50:06.369Z,3.47
2023-03-10T09:52:38.640Z,3.00
2023-03-10T09:55:13.311Z,3.90
2023-03-10T09:57:42.834Z,4.60
2023-03-10T10:00:21.851Z,2.47
2023-03-10T10:02:51.910Z,2.58
2023-03-10T10:05:24.349Z,2.43
2023-03-10T10:07:55.756Z,1.55
2023-03-10T10:10:28.463Z,2.95
2023-03-10T10:12:58.008Z,2.95
2023-03-10T10:15:34.946Z,1.20
2023-03-10T10:18:18.502Z,4.55
2023-03-10T10:20:51.596Z,1.90
2023-03-10T10:23:23.562Z,3.25
2023-03-10T10:25:53.478Z,2.38
2023-03-10T10:28:26.518Z,2.15
2023-03-10T10:31:11.756Z,2.45
2023-03-10T10:33:54.934Z,2.45
2023-03-10T10:36:24.696Z,3.17
2023-03-10T10:38:54.871Z,3.60
2023-03-10T10:41:27.037Z,5.00
2023-03-10T10:43:57.788Z,3.28
2023-03-10T10:46:30.946Z,2.65
2023-03-10T10:49:09.107Z,3.47
2023-03-10T10:51:39.099Z,1.85
2023-03-10T10:54:22.421Z,1.50
2023-03-10T10:56:55.163Z,2.83
2023-03-10T10:59:25.426Z,1.35
2023-03-10T11:01:58.666Z,2.05
2023-03-10T11:04:29.890Z,1.73
2023-03-10T11:07:12.094Z,1.98
2023-03-10T11:09:41.611Z,1.77
2023-03-10T11:12:14.060Z,1.90
2023-03-10T11:14:52.562Z,1.95
2023-03-10T11:17:27.239Z,1.83
2023-03-10T11:20:05.804Z,1.75
2023-03-10T11:22:40.152Z,1.40
2023-03-10T11:25:22.409Z,1.08
2023-03-10T11:28:09.124Z,2.25
2023-03-10T11:30:39.761Z,1.98
2023-03-10T11:33:17.132Z,2.28
2023-03-10T11:35:48.185Z,1.75
2023-03-10T11:40:59.082Z,1.95
2023-03-10T11:43:34.504Z,1.77
2023-03-10T11:46:06.424Z,2.92
2023-03-10T11:48:59.339Z,2.55
2023-03-10T11:51:31.361Z,2.70
2023-03-10T11:54:01.265Z,2.22
2023-03-10T11:56:30.927Z,4.75
2023-03-10T11:59:03.114Z,2.45
2023-03-10T12:01:34.090Z,4.00
2023-03-10T12:04:11.354Z,3.08
2023-03-10T12:06:44.714Z,2.60
2023-03-10T12:09:18.341Z,3.53
2023-03-10T12:11:47.871Z,3.78
2023-03-10T12:14:17.445Z,3.40
2023-03-10T12:16:46.950Z,1.98
2023-03-10T12:19:18.971Z,2.22
2023-03-10T12:21:48.887Z,1.75
2023-03-10T12:24:45.509Z,2.85
2023-03-10T12:27:15.031Z,3.90
2023-03-10T12:29:44.715Z,2.15
2023-03-10T12:32:41.838Z,1.23
2023-03-10T12:35:46.847Z,1.48
2023-03-10T12:38:46.446Z,1.73
2023-03-10T12:41:16.296Z,2.40
2023-03-10T12:44:08.963Z,1.58
2023-03-10T12:46:43.197Z,1.20
2023-03-10T12:49:28.409Z,1.40
2023-03-10T12:52:02.939Z,1.77
2023-03-10T12:54:43.860Z,1.30
2023-03-10T12:57:16.964Z,3.03
2023-03-10T12:59:48.644Z,1.98
2023-03-10T13:02:35.902Z,1.48
2023-03-10T13:05:07.380Z,1.55
2023-03-10T13:07:36.895Z,2.97
2023-03-10T13:10:09.595Z,4.03
2023-03-10T13:12:41.813Z,3.75
2023-03-10T13:15:29.325Z,2.08
2023-03-10T13:18:12.253Z,3.30
2023-03-10T13:20:41.828Z,3.65
2023-03-10T13:23:21.458Z,1.60
2023-03-10T13:25:57.581Z,3.55
2023-03-10T13:28:28.015Z,1.92
2023-03-10T13:31:15.211Z,1.50
2023-03-10T13:33:52.969Z,2.88
2023-03-10T13:36:34.109Z,2.22
2023-03-10T13:39:05.234Z,2.80
2023-03-10T13:44:07.224Z,2.42
2023-03-10T13:46:37.308Z,2.65
2023-03-10T13:49:08.584Z,4.13
2023-03-10T13:51:38.623Z,4.95
2023-03-10T13:54:19.659Z,4.65
2023-03-10T13:56:52.662Z,2.88
2023-03-10T13:59:23.808Z,5.05
2023-03-10T14:01:55.617Z,6.75
2023-03-10T14:04:43.977Z,3.50
2023-03-10T14:07:14.507Z,1.83
2023-03-10T14:09:44.114Z,1.90
2023-03-10T14:12:16.482Z,0.80
2023-03-10T14:14:46.128Z,0.80
2023-03-10T14:17:33.902Z,0.75
2023-03-10T14:20:05.069Z,0.80
2023-03-10T14:22:38.059Z,0.85
2023-03-10T14:25:13.582Z,0.70
2023-03-10T14:27:46.998Z,2.13
2023-03-10T14:30:27.253Z,1.77
2023-03-10T14:32:58.130Z,0.60
2023-03-10T14:35:27.679Z,1.02
2023-03-10T14:37:57.240Z,0.60
2023-03-10T14:40:27.174Z,0.50
2023-03-10T14:43:02.067Z,1.38
2023-03-10T14:45:33.102Z,0.65
2023-03-10T14:50:32.930Z,0.60
2023-03-10T14:53:02.590Z,0.50
2023-03-10T14:55:35.076Z,1.40
2023-03-10T14:58:07.389Z,0.70
2023-03-10T15:00:37.613Z,1.05
2023-03-10T15:03:07.290Z,0.67
2023-03-10T15:05:47.914Z,0.60
2023-03-10T15:08:17.999Z,0.63
2023-03-10T15:10:50.663Z,1.80
2023-03-10T15:13:23.786Z,1.77
2023-03-10T15:15:53.548Z,0.95
2023-03-10T15:18:24.460Z,0.77
2023-03-10T15:20:58.434Z,0.70
2023-03-10T15:23:28.617Z,1.27
2023-03-10T15:25:58.402Z,1.33
2023-03-10T15:28:30.510Z,2.05
2023-03-10T15:31:00.058Z,2.78
2023-03-10T15:33:29.722Z,0.70
2023-03-10T15:35:59.279Z,0.70
2023-03-10T15:38:28.756Z,0.85
2023-03-10T15:40:58.811Z,1.75
2023-03-10T15:43:31.004Z,1.02
2023-03-10T15:46:00.530Z,1.05
2023-03-10T15:48:30.042Z,1.08
2023-03-10T15:50:59.596Z,1.25
2023-03-10T15:53:29.417Z,1.27
2023-03-10T15:55:58.918Z,2.90
2023-03-10T15:58:30.965Z,2.30
2023-03-10T16:01:00.453Z,2.25
2023-03-10T16:03:29.906Z,2.00
2023-03-10T16:05:59.380Z,1.67
2023-03-10T16:08:29.065Z,1.77
2023-03-10T16:10:58.582Z,1.92
2023-03-10T16:13:30.744Z,1.10
2023-03-10T16:16:00.725Z,1.58
2023-03-10T16:18:30.707Z,0.88
2023-03-10T16:21:01.120Z,1.00
2023-03-10T16:23:31.245Z,1.58
2023-03-10T16:26:12.422Z,1.07
2023-03-10T16:31:15.620Z,1.67
2023-03-10T16:33:45.229Z,1.52
2023-03-10T16:36:16.421Z,1.58
2023-03-10T16:38:46.588Z,3.38
2023-03-10T16:41:16.136Z,2.67
2023-03-10T16:43:48.428Z,2.10
2023-03-10T16:46:20.242Z,1.33
2023-03-10T16:48:50.073Z,1.40
2023-03-10T16:51:27.848Z,1.50
2023-03-10T16:53:57.543Z,2.00
2023-03-10T16:56:27.796Z,0.95
2023-03-10T16:58:59.992Z,1.93
2023-03-10T17:01:29.655Z,3.90
2023-03-10T17:04:02.298Z,1.00
2023-03-10T17:06:32.775Z,1.80
2023-03-10T17:09:02.709Z,1.15
2023-03-10T17:11:33.150Z,2.40
2023-03-10T17:14:06.933Z,1.35
2023-03-10T17:16:37.285Z,1.75
2023-03-10T17:19:07.853Z,2.80
2023-03-10T17:21:39.592Z,1.30
2023-03-10T17:24:10.338Z,1.73
2023-03-10T17:26:40.085Z,1.60
2023-03-10T17:29:12.275Z,1.25
2023-03-10T17:31:44.004Z,1.45
2023-03-10T17:34:15.188Z,1.30
2023-03-10T17:39:18.850Z,1.35
2023-03-10T17:41:48.435Z,2.00
2023-03-10T17:44:20.548Z,1.55
2023-03-10T17:46:50.437Z,6.97
2023-03-10T17:49:20.687Z,2.03
2023-03-10T17:51:50.395Z,3.80
2023-03-10T17:54:20.817Z,2.00
2023-03-10T17:56:50.736Z,2.40
2023-03-10T17:59:22.817Z,1.77
2023-03-10T18:01:52.416Z,1.95
2023-03-10T18:04:21.942Z,1.38
2023-03-10T18:06:51.423Z,1.40
2023-03-10T18:09:20.973Z,2.05
2023-03-10T18:11:50.413Z,1.42
2023-03-10T18:14:22.468Z,1.40
2023-03-10T18:16:52.018Z,1.17
2023-03-10T18:19:21.628Z,1.00
2023-03-10T18:21:52.462Z,1.20
2023-03-10T18:24:22.511Z,1.83
2023-03-10T18:26:52.028Z,1.50
2023-03-10T18:29:24.165Z,1.00
2023-03-10T18:31:53.653Z,1.48
2023-03-10T18:34:23.276Z,1.88
2023-03-10T18:36:53.528Z,1.10
2023-03-10T18:39:23.192Z,1.50
2023-03-10T18:41:52.653Z,1.20
2023-03-10T18:44:24.785Z,1.10
2023-03-10T18:46:54.427Z,1.52
2023-03-10T18:49:23.949Z,1.30
2023-03-10T18:51:53.584Z,1.35
2023-03-10T18:54:23.142Z,1.70
2023-03-10T18:56:53.204Z,2.55
2023-03-10T18:59:25.364Z,2.30
2023-03-10T19:01:54.999Z,2.42
2023-03-10T19:04:24.939Z,2.80
2023-03-10T19:06:54.459Z,2.80
2023-03-10T19:09:24.580Z,3.13
2023-03-10T19:11:55.316Z,3.87
2023-03-10T19:14:27.418Z,4.97
2023-03-10T19:16:56.926Z,4.07
2023-03-10T19:19:26.432Z,3.30
2023-03-10T19:21:55.910Z,8.38
2023-03-10T19:24:25.552Z,3.28
2023-03-10T19:26:55.169Z,4.20
2023-03-10T19:29:27.304Z,3.20
2023-03-10T19:31:57.317Z,3.30
2023-03-10T19:34:26.971Z,4.05
2023-03-10T19:36:58.421Z,4.43
2023-03-10T19:39:28.100Z,5.40
2023-03-10T19:41:57.606Z,5.65
2023-03-10T19:44:29.726Z,3.00
2023-03-10T19:47:00.083Z,3.95
2023-03-10T19:49:34.138Z,2.83
2023-03-10T19:52:03.849Z,3.42
2023-03-10T19:54:33.544Z,4.07
2023-03-10T19:57:03.231Z,4.10
2023-03-10T19:59:35.269Z,3.15
2023-03-10T20:02:04.740Z,3.80
2023-03-10T20:04:35.430Z,4.00
2023-03-10T20:07:04.897Z,2.78
2023-03-10T20:09:34.490Z,3.30
2023-03-10T20:12:04.025Z,3.72
2023-03-10T20:14:36.103Z,4.13
2023-03-10T20:17:05.636Z,16.17
2023-03-10T20:19:35.143Z,4.32
2023-03-10T20:22:04.852Z,5.32
2023-03-10T20:24:34.326Z,4.57
2023-03-10T20:27:03.953Z,4.22
2023-03-10T20:29:36.177Z,5.72
2023-03-10T20:32:05.832Z,5.15
2023-03-10T20:34:35.472Z,7.03
2023-03-10T20:37:04.955Z,5.20
2023-03-10T20:39:34.440Z,4.35
2023-03-10T20:42:03.897Z,2.55
2023-03-10T20:44:37.788Z,3.42
2023-03-10T20:47:07.556Z,7.47
2023-03-10T20:49:36.831Z,5.47
2023-03-10T20:52:06.506Z,3.55
2023-03-10T20:54:36.057Z,3.28
2023-03-10T20:57:06.215Z,2.40
2023-03-10T20:59:38.696Z,2.60
2023-03-10T21:02:08.513Z,3.03
2023-03-10T21:04:38.138Z,3.95
2023-03-10T21:07:07.752Z,3.28
2023-03-10T21:09:37.337Z,2.70
2023-03-10T21:12:07.513Z,9.95
2023-03-10T21:14:42.172Z,2.83
2023-03-10T21:17:11.889Z,2.63
2023-03-10T21:19:41.534Z,2.78
2023-03-10T21:22:11.336Z,3.53
2023-03-10T21:24:40.950Z,3.00
2023-03-10T21:27:10.581Z,3.22
2023-03-10T21:29:43.121Z,3.13
2023-03-10T21:32:12.749Z,2.53
2023-03-10T21:34:42.325Z,5.72
2023-03-10T21:37:12.100Z,3.35
2023-03-10T21:39:41.581Z,3.53
2023-03-10T21:42:12.127Z,1.80
2023-03-10T21:44:44.280Z,2.15
2023-03-10T21:47:13.808Z,2.65
2023-03-10T21:49:43.319Z,1.70
2023-03-10T21:52:13.048Z,1.60
2023-03-10T21:54:43.101Z,2.47
2023-03-10T21:57:12.724Z,2.60
2023-03-10T21:59:44.995Z,1.70
2023-03-10T22:02:16.139Z,1.65
2023-03-10T22:04:45.678Z,3.35
2023-03-10T22:07:15.130Z,2.45
2023-03-10T22:09:44.706Z,2.00
2023-03-10T22:12:14.191Z,2.17
2023-03-10T22:14:47.596Z,3.35
2023-03-10T22:17:17.352Z,2.88
2023-03-10T22:19:46.869Z,2.78
2023-03-10T22:22:16.358Z,1.60
2023-03-10T22:24:46.011Z,1.75
2023-03-10T22:27:15.489Z,2.03
2023-03-10T22:29:47.621Z,2.28
2023-03-10T22:32:17.106Z,1.60
2023-03-10T22:34:47.061Z,2.58
2023-03-10T22:37:16.629Z,2.83
2023-03-10T22:39:46.486Z,2.53
2023-03-10T22:42:16.024Z,3.92
2023-03-10T22:44:48.075Z,3.90
2023-03-10T22:47:17.769Z,2.80
2023-03-10T22:49:47.414Z,2.55
2023-03-10T22:52:16.996Z,3.17
2023-03-10T22:54:46.549Z,5.63
2023-03-10T22:57:16.173Z,2.05
2023-03-10T22:59:48.344Z,1.58
2023-03-10T23:02:17.853Z,3.22
2023-03-10T23:04:47.307Z,2.05
2023-03-10T23:07:16.816Z,2.97
2023-03-10T23:09:46.611Z,2.15
2023-03-10T23:12:16.098Z,3.30
2023-03-10T23:14:48.154Z,2.05
2023-03-10T23:17:17.988Z,2.00
2023-03-10T23:19:51.221Z,2.58
2023-03-10T23:22:21.095Z,2.55
2023-03-10T23:24:50.560Z,3.10
2023-03-10T23:27:20.184Z,2.25
2023-03-10T23:29:52.510Z,3.97
2023-03-10T23:32:22.076Z,3.63
2023-03-10T23:34:51.708Z,5.30
2023-03-10T23:37:21.237Z,3.53
2023-03-10T23:39:51.415Z,3.10
2023-03-10T23:42:20.920Z,2.38
2023-03-10T23:44:53.017Z,3.83
2023-03-10T23:47:25.633Z,4.93
2023-03-10T23:49:55.126Z,3.88
2023-03-10T23:52:24.587Z,3.92
2023-03-10T23:54:54.025Z,3.83
2023-03-10T23:57:23.522Z,2.72
2023-03-10T23:59:55.714Z,3.58
